Argillite, Kentucky
Current Conditions -  °F | °C
As of 7:55 AM on Monday 20 Oct 2014 (Local Time) from KDWU Reporting Station
Clear Clear  
Wind Chill:   Ceiling: Unl
Heat Index:   Visibility: 10mi
Dew Point:   Wind: 3mph
Humidity: 81%   Direction: 140°SE
Pressure: 30.04"   Gusts: NA
Location:  38.51°N, 82.87°W
Report Text: KDWU 201155Z AUTO 14003KT 10SM CLR 06/03 A3004 RMK AO1 10060 20040 54000
Loading
Personal Weather Stations






























Interactive Weather Map
Tropical Storm Tracking
New forecast layout! Learn more

10-Day Weather Forecast

Advertisements
Track Severe Weather on mobile